createdAt,value
2022-09-13T00:01:01.774Z,100607.34
2022-09-13T00:03:28.811Z,100599.75
2022-09-13T00:05:55.674Z,100596.75
2022-09-13T00:08:22.196Z,100598.75
2022-09-13T00:10:49.086Z,100598.44
2022-09-13T00:13:16.702Z,100579.28
2022-09-13T00:15:48.616Z,100573.63
2022-09-13T00:18:16.208Z,100557.38
2022-09-13T00:20:42.744Z,100563.22
2022-09-13T00:23:09.636Z,100557.16
2022-09-13T00:25:36.321Z,100554.19
2022-09-13T00:28:03.590Z,100565.53
2022-09-13T00:30:30.262Z,100563.16
2022-09-13T00:32:56.769Z,100562.34
2022-09-13T00:35:23.914Z,100561.97
2022-09-13T00:37:50.709Z,100569.56
2022-09-13T00:40:17.305Z,100578.72
2022-09-13T00:42:43.918Z,100588.19
2022-09-13T00:45:10.751Z,100596.66
2022-09-13T00:47:48.576Z,100588.03
2022-09-13T00:50:19.453Z,100546.00
2022-09-13T00:52:50.029Z,100538.44
2022-09-13T00:55:27.866Z,100556.22
2022-09-13T00:57:57.237Z,100563.81
2022-09-13T01:00:23.732Z,100556.22
2022-09-13T01:02:54.126Z,100544.53
2022-09-13T01:05:22.920Z,100548.44
2022-09-13T01:07:50.835Z,100533.50
2022-09-13T01:10:18.224Z,100527.59
2022-09-13T01:12:53.184Z,100524.00
2022-09-13T01:15:19.828Z,100513.66
2022-09-13T01:17:46.602Z,100515.63
2022-09-13T01:20:13.879Z,100514.28
2022-09-13T01:22:49.560Z,100506.38
2022-09-13T01:25:41.044Z,100500.47
2022-09-13T01:28:12.889Z,100487.50
2022-09-13T01:31:02.227Z,100494.94
2022-09-13T01:33:37.618Z,100489.75
2022-09-13T01:36:35.943Z,100490.69
2022-09-13T01:39:07.456Z,100478.28
2022-09-13T01:42:01.781Z,100472.38
2022-09-13T01:45:07.928Z,100477.88
2022-09-13T01:47:43.978Z,100483.63
2022-09-13T01:50:10.431Z,100474.44
2022-09-13T01:52:44.852Z,100472.06
2022-09-13T01:55:14.197Z,100473.97
2022-09-13T01:57:56.002Z,100469.84
2022-09-13T02:00:22.434Z,100457.88
2022-09-13T02:02:57.162Z,100457.97
2022-09-13T02:05:48.299Z,100455.00
2022-09-13T02:08:33.394Z,100455.94
2022-09-13T02:11:22.802Z,100447.31
2022-09-13T02:13:54.656Z,100440.88
2022-09-13T02:16:42.648Z,100426.22
2022-09-13T02:19:14.339Z,100426.09
2022-09-13T02:21:44.956Z,100435.97
2022-09-13T02:24:16.948Z,100432.66
2022-09-13T02:26:46.688Z,100427.41
2022-09-13T02:29:18.080Z,100423.91
2022-09-13T02:31:49.287Z,100406.34
2022-09-13T02:34:22.670Z,100404.81
2022-09-13T02:36:50.992Z,100402.88
2022-09-13T02:39:19.195Z,100406.72
2022-09-13T02:41:52.200Z,100411.97
2022-09-13T02:44:37.725Z,100416.28
2022-09-13T02:47:06.847Z,100415.94
2022-09-13T02:49:38.764Z,100416.69
2022-09-13T02:52:08.277Z,100410.94
2022-09-13T02:54:40.918Z,100409.44
2022-09-13T02:57:18.580Z,100415.78
2022-09-13T02:59:47.022Z,100416.25
2022-09-13T03:02:16.494Z,100414.84
2022-09-13T03:04:43.075Z,100406.66
2022-09-13T03:07:14.334Z,100403.63
2022-09-13T03:09:50.033Z,100408.44
2022-09-13T03:12:38.943Z,100400.72
2022-09-13T03:15:18.272Z,100392.34
2022-09-13T03:17:53.599Z,100389.19
2022-09-13T03:20:41.617Z,100393.59
2022-09-13T03:23:35.390Z,100395.75
2022-09-13T03:26:22.283Z,100394.22
2022-09-13T03:29:05.177Z,100399.06
2022-09-13T03:31:50.431Z,100392.97
2022-09-13T03:34:34.002Z,100392.91
2022-09-13T03:37:25.921Z,100381.81
2022-09-13T03:39:53.857Z,100390.84
2022-09-13T03:42:46.733Z,100379.59
2022-09-13T03:45:15.086Z,100375.69
2022-09-13T03:47:42.708Z,100388.13
2022-09-13T03:50:10.147Z,100385.34
2022-09-13T03:52:36.786Z,100370.25
2022-09-13T03:55:03.410Z,100370.53
2022-09-13T03:57:29.844Z,100376.38
2022-09-13T03:59:57.246Z,100377.69
2022-09-13T04:02:25.866Z,100371.38
2022-09-13T04:04:52.430Z,100369.94
2022-09-13T04:07:23.203Z,100363.94
2022-09-13T04:09:50.206Z,100355.28
2022-09-13T04:12:17.392Z,100355.50
2022-09-13T04:14:43.986Z,100362.56
2022-09-13T04:17:10.827Z,100375.09
2022-09-13T04:19:37.521Z,100370.66
2022-09-13T04:22:04.117Z,100373.41
2022-09-13T04:24:31.442Z,100377.59
2022-09-13T04:26:58.439Z,100365.09
2022-09-13T04:29:26.351Z,100380.19
2022-09-13T04:31:54.398Z,100374.16
2022-09-13T04:34:23.086Z,100365.59
2022-09-13T04:36:50.807Z,100358.00
2022-09-13T04:39:17.250Z,100363.81
2022-09-13T04:41:46.833Z,100371.53
2022-09-13T04:44:13.318Z,100377.78
2022-09-13T04:46:39.829Z,100368.13
2022-09-13T04:49:06.332Z,100375.19
2022-09-13T04:51:32.913Z,100384.75
2022-09-13T04:54:00.328Z,100386.75
2022-09-13T04:56:27.059Z,100393.97
2022-09-13T04:58:55.139Z,100404.59
2022-09-13T05:01:27.550Z,100405.97
2022-09-13T05:03:55.420Z,100408.13
2022-09-13T05:06:22.821Z,100406.22
2022-09-13T05:08:55.259Z,100415.66
2022-09-13T05:11:22.936Z,100410.84
2022-09-13T05:13:55.168Z,100411.66
2022-09-13T05:16:29.995Z,100406.16
2022-09-13T05:18:57.242Z,100403.63
2022-09-13T05:21:24.238Z,100397.44
2022-09-13T05:23:51.712Z,100390.19
2022-09-13T05:26:18.737Z,100393.19
2022-09-13T05:28:45.199Z,100396.63
2022-09-13T05:31:29.078Z,100403.56
2022-09-13T05:33:58.842Z,100410.25
2022-09-13T05:36:26.473Z,100412.00
2022-09-13T05:39:06.871Z,100422.84
2022-09-13T05:41:41.230Z,100415.94
2022-09-13T05:44:13.184Z,100412.47
2022-09-13T05:46:40.465Z,100419.78
2022-09-13T05:49:06.930Z,100414.00
2022-09-13T05:51:33.414Z,100419.09
2022-09-13T05:54:00.080Z,100419.63
2022-09-13T05:56:28.674Z,100422.19
2022-09-13T05:58:55.602Z,100409.59
2022-09-13T06:01:25.645Z,100412.75
2022-09-13T06:03:54.162Z,100427.34
2022-09-13T06:06:21.733Z,100425.06
2022-09-13T06:08:49.469Z,100436.34
2022-09-13T06:11:16.005Z,100437.03
2022-09-13T06:13:43.384Z,100441.84
2022-09-13T06:16:11.748Z,100443.19
2022-09-13T06:18:38.457Z,100437.38
2022-09-13T06:21:07.307Z,100432.97
2022-09-13T06:23:34.101Z,100432.41
2022-09-13T06:26:10.480Z,100427.78
2022-09-13T06:28:37.746Z,100425.28
2022-09-13T06:31:12.159Z,100422.94
2022-09-13T06:33:40.575Z,100422.00
2022-09-13T06:36:09.816Z,100438.19
2022-09-13T06:38:37.409Z,100437.28
2022-09-13T06:41:06.380Z,100432.13
2022-09-13T06:43:33.714Z,100434.91
2022-09-13T06:46:09.334Z,100434.19
2022-09-13T06:48:38.928Z,100427.03
2022-09-13T06:51:09.666Z,100436.16
2022-09-13T06:53:36.993Z,100443.06
2022-09-13T06:56:16.056Z,100446.13
2022-09-13T06:58:44.005Z,100432.75
2022-09-13T07:01:14.085Z,100432.34
2022-09-13T07:03:42.640Z,100447.75
2022-09-13T07:06:14.256Z,100436.91
2022-09-13T07:08:42.305Z,100446.41
2022-09-13T07:11:10.059Z,100449.38
2022-09-13T07:13:36.839Z,100436.25
2022-09-13T07:16:11.437Z,100446.56
2022-09-13T07:18:38.573Z,100454.84
2022-09-13T07:21:09.007Z,100443.16
2022-09-13T07:23:37.891Z,100448.78
2022-09-13T07:26:05.676Z,100456.47
2022-09-13T07:28:40.261Z,100454.31
2022-09-13T07:31:25.221Z,100452.97
2022-09-13T07:33:56.593Z,100460.59
2022-09-13T07:36:23.999Z,100462.66
2022-09-13T07:38:50.688Z,100464.22
2022-09-13T07:41:25.783Z,100460.00
2022-09-13T07:43:52.576Z,100464.91
2022-09-13T07:46:26.613Z,100468.66
2022-09-13T07:48:55.040Z,100473.75
2022-09-13T07:51:23.453Z,100468.19
2022-09-13T07:53:56.934Z,100460.91
2022-09-13T07:56:29.173Z,100469.13
2022-09-13T07:58:56.142Z,100469.53
2022-09-13T08:01:24.830Z,100470.81
2022-09-13T08:04:02.292Z,100476.13
2022-09-13T08:06:30.996Z,100473.81
2022-09-13T08:08:58.054Z,100470.69
2022-09-13T08:11:29.634Z,100471.81
2022-09-13T08:13:56.184Z,100467.81
2022-09-13T08:16:24.014Z,100466.78
2022-09-13T08:18:54.388Z,100463.03
2022-09-13T08:21:21.085Z,100475.31
2022-09-13T08:23:48.031Z,100462.94
2022-09-13T08:26:14.684Z,100471.66
2022-09-13T08:28:42.252Z,100472.75
2022-09-13T08:31:11.442Z,100470.78
2022-09-13T08:33:40.213Z,100471.97
2022-09-13T08:36:09.554Z,100474.03
2022-09-13T08:38:37.940Z,100476.69
2022-09-13T08:41:42.600Z,100482.09
2022-09-13T08:44:34.811Z,100484.19
2022-09-13T08:47:19.764Z,100480.00
2022-09-13T08:49:49.774Z,100480.47
2022-09-13T08:52:30.743Z,100470.84
2022-09-13T08:54:58.723Z,100473.75
2022-09-13T08:57:34.542Z,100475.25
2022-09-13T09:00:04.121Z,100480.47
2022-09-13T09:02:43.950Z,100478.19
2022-09-13T09:05:30.699Z,100480.50
2022-09-13T09:08:02.066Z,100487.94
2022-09-13T09:10:45.214Z,100479.59
2022-09-13T09:13:24.646Z,100480.50
2022-09-13T09:16:05.431Z,100485.44
2022-09-13T09:18:40.352Z,100483.50
2022-09-13T09:21:20.404Z,100482.97
2022-09-13T09:23:52.090Z,100474.88
2022-09-13T09:26:22.811Z,100473.53
2022-09-13T09:28:50.998Z,100478.28
2022-09-13T09:31:32.321Z,100478.63
2022-09-13T09:34:22.549Z,100484.16
2022-09-13T09:36:54.924Z,100481.88
2022-09-13T09:39:21.543Z,100481.56
2022-09-13T09:41:47.981Z,100487.63
2022-09-13T09:44:23.039Z,100480.53
2022-09-13T09:47:12.036Z,100484.03
2022-09-13T09:50:05.300Z,100480.63
2022-09-13T09:52:35.445Z,100477.88
2022-09-13T09:55:11.257Z,100485.72
2022-09-13T09:57:52.962Z,100482.16
2022-09-13T10:00:20.585Z,100480.09
2022-09-13T10:02:48.758Z,100487.22
2022-09-13T10:05:20.026Z,100489.38
2022-09-13T10:08:03.059Z,100486.78
2022-09-13T10:10:36.858Z,100481.97
2022-09-13T10:13:05.297Z,100471.28
2022-09-13T10:15:35.445Z,100483.63
2022-09-13T10:18:33.396Z,100475.38
2022-09-13T10:21:01.683Z,100474.25
2022-09-13T10:23:28.526Z,100468.09
2022-09-13T10:26:02.837Z,100465.78
2022-09-13T10:28:31.450Z,100463.63
2022-09-13T10:31:04.287Z,100469.00
2022-09-13T10:33:42.506Z,100459.47
2022-09-13T10:36:41.153Z,100445.53
2022-09-13T10:39:07.506Z,100462.38
2022-09-13T10:41:35.526Z,100456.59
2022-09-13T10:44:09.516Z,100454.91
2022-09-13T10:46:39.172Z,100441.59
2022-09-13T10:49:05.649Z,100452.09
2022-09-13T10:51:36.826Z,100445.59
2022-09-13T10:54:20.184Z,100460.50
2022-09-13T10:56:48.079Z,100464.94
2022-09-13T10:59:17.711Z,100468.63
2022-09-13T11:02:10.695Z,100457.03
2022-09-13T11:04:55.787Z,100468.44
2022-09-13T11:07:25.196Z,100470.53
2022-09-13T11:10:13.473Z,100467.97
2022-09-13T11:12:55.320Z,100468.03
2022-09-13T11:16:26.335Z,100466.06
2022-09-13T11:19:12.823Z,100466.53
2022-09-13T11:21:53.086Z,100471.69
2022-09-13T11:24:43.648Z,100471.03
2022-09-13T11:27:32.336Z,100467.31
2022-09-13T11:30:11.538Z,100459.50
2022-09-13T11:32:59.978Z,100458.78
2022-09-13T11:36:03.669Z,100445.03
2022-09-13T11:38:35.592Z,100445.81
2022-09-13T11:41:36.522Z,100444.44
2022-09-13T11:44:33.846Z,100444.50
2022-09-13T11:47:08.141Z,100451.16
2022-09-13T11:50:06.224Z,100439.00
2022-09-13T11:52:51.511Z,100440.16
2022-09-13T11:55:32.375Z,100435.94
2022-09-13T11:58:02.442Z,100435.69
2022-09-13T12:00:35.503Z,100435.09
2022-09-13T12:03:11.498Z,100427.72
2022-09-13T12:06:17.476Z,100429.50
2022-09-13T12:08:48.357Z,100432.97
2022-09-13T12:11:25.389Z,100427.25
2022-09-13T12:14:01.070Z,100419.84
2022-09-13T12:16:37.143Z,100428.19
2022-09-13T12:19:54.922Z,100431.22
2022-09-13T12:22:27.661Z,100431.94
2022-09-13T12:24:59.539Z,100441.84
2022-09-13T12:27:39.656Z,100443.63
2022-09-13T12:30:19.542Z,100446.28
2022-09-13T12:32:48.015Z,100447.94
2022-09-13T12:35:20.896Z,100442.44
2022-09-13T12:37:53.347Z,100444.22
2022-09-13T12:40:38.557Z,100441.97
2022-09-13T12:43:17.416Z,100455.81
2022-09-13T12:45:43.945Z,100452.72
2022-09-13T12:48:22.390Z,100453.50
2022-09-13T12:51:10.690Z,100452.72
2022-09-13T12:54:03.439Z,100457.44
2022-09-13T12:56:44.899Z,100455.25
2022-09-13T12:59:18.576Z,100455.34
2022-09-13T13:01:47.621Z,100449.78
2022-09-13T13:04:17.613Z,100450.25
2022-09-13T13:06:57.507Z,100448.38
2022-09-13T13:09:43.718Z,100454.25
2022-09-13T13:12:32.329Z,100456.09
2022-09-13T13:15:01.062Z,100454.25
2022-09-13T13:17:38.525Z,100454.91
2022-09-13T13:20:42.937Z,100455.19
2022-09-13T13:23:27.762Z,100459.31
2022-09-13T13:26:09.573Z,100458.31
2022-09-13T13:28:45.297Z,100460.28
2022-09-13T13:31:24.177Z,100454.16
2022-09-13T13:33:59.764Z,100451.28
2022-09-13T13:36:28.778Z,100452.88
2022-09-13T13:38:56.417Z,100461.84
2022-09-13T13:41:38.729Z,100464.69
2022-09-13T13:44:20.617Z,100453.75
2022-09-13T13:46:55.421Z,100459.75
2022-09-13T13:50:07.211Z,100464.16
2022-09-13T13:52:38.902Z,100454.56
2022-09-13T13:55:44.349Z,100451.13
2022-09-13T13:58:31.213Z,100459.81
2022-09-13T14:00:59.991Z,100444.06
2022-09-13T14:03:32.461Z,100456.19
2022-09-13T14:06:07.318Z,100451.94
2022-09-13T14:08:40.061Z,100454.56
2022-09-13T14:11:30.617Z,100455.91
2022-09-13T14:14:25.178Z,100462.56
2022-09-13T14:17:30.947Z,100452.31
2022-09-13T14:20:24.826Z,100461.69
2022-09-13T14:22:51.301Z,100452.84
2022-09-13T14:25:22.498Z,100453.38
2022-09-13T14:27:49.933Z,100453.97
2022-09-13T14:30:27.068Z,100461.22
2022-09-13T14:32:57.648Z,100454.91
2022-09-13T14:35:38.520Z,100452.78
2022-09-13T14:38:22.733Z,100458.72
2022-09-13T14:40:50.680Z,100451.75
2022-09-13T14:43:24.482Z,100456.88
2022-09-13T14:46:13.358Z,100450.53
2022-09-13T14:48:43.581Z,100459.34
2022-09-13T14:51:18.889Z,100444.75
2022-09-13T14:53:48.037Z,100448.13
2022-09-13T14:56:21.052Z,100441.66
2022-09-13T14:58:48.677Z,100439.03
2022-09-13T15:01:21.257Z,100443.06
2022-09-13T15:03:48.459Z,100443.25
2022-09-13T15:06:26.954Z,100437.38
2022-09-13T15:09:23.482Z,100436.09
2022-09-13T15:11:53.518Z,100449.63
2022-09-13T15:14:34.903Z,100440.44
2022-09-13T15:17:09.112Z,100440.47
2022-09-13T15:19:39.888Z,100442.31
2022-09-13T15:22:14.553Z,100442.69
2022-09-13T15:24:58.174Z,100445.00
2022-09-13T15:27:34.234Z,100436.09
2022-09-13T15:30:03.729Z,100435.97
2022-09-13T15:32:34.632Z,100447.16
2022-09-13T15:35:02.265Z,100441.28
2022-09-13T15:37:35.074Z,100445.34
2022-09-13T15:40:22.101Z,100446.41
2022-09-13T15:42:49.843Z,100438.22
2022-09-13T15:45:17.620Z,100449.00
2022-09-13T15:47:49.250Z,100452.25
2022-09-13T15:50:20.675Z,100458.44
2022-09-13T15:52:47.173Z,100444.41
2022-09-13T15:55:13.827Z,100451.94
2022-09-13T15:57:40.305Z,100444.91
2022-09-13T16:00:07.569Z,100440.44
2022-09-13T16:02:35.686Z,100434.59
2022-09-13T16:05:02.190Z,100437.66
2022-09-13T16:07:28.628Z,100433.66
2022-09-13T16:09:55.146Z,100440.94
2022-09-13T16:12:24.464Z,100435.88
2022-09-13T16:14:51.119Z,100437.63
2022-09-13T16:17:21.755Z,100439.75
2022-09-13T16:19:48.634Z,100439.88
2022-09-13T16:22:25.002Z,100443.41
2022-09-13T16:24:55.630Z,100441.69
2022-09-13T16:27:22.193Z,100443.78
2022-09-13T16:29:48.747Z,100440.38
2022-09-13T16:32:15.687Z,100435.59
2022-09-13T16:34:42.202Z,100432.69
2022-09-13T16:37:08.826Z,100441.63
2022-09-13T16:39:35.400Z,100444.66
2022-09-13T16:42:01.895Z,100442.56
2022-09-13T16:44:28.442Z,100447.13
2022-09-13T16:46:55.082Z,100438.50
2022-09-13T16:49:21.581Z,100428.69
2022-09-13T16:51:48.032Z,100440.22
2022-09-13T16:54:14.651Z,100427.84
2022-09-13T16:56:41.427Z,100417.63
2022-09-13T16:59:08.003Z,100419.56
2022-09-13T17:01:35.781Z,100421.34
2022-09-13T17:04:02.648Z,100429.28
2022-09-13T17:06:29.228Z,100431.75
2022-09-13T17:09:01.934Z,100440.09
2022-09-13T17:11:30.755Z,100439.66
2022-09-13T17:13:57.590Z,100439.31
2022-09-13T17:16:35.658Z,100435.69
2022-09-13T17:19:05.004Z,100438.41
2022-09-13T17:21:33.773Z,100437.63
2022-09-13T17:24:01.244Z,100436.06
2022-09-13T17:26:27.776Z,100436.81
2022-09-13T17:28:54.234Z,100437.41
2022-09-13T17:31:20.854Z,100442.56
2022-09-13T17:33:47.449Z,100440.03
2022-09-13T17:36:14.710Z,100441.44
2022-09-13T17:38:41.900Z,100438.00
2022-09-13T17:41:14.349Z,100442.03
2022-09-13T17:43:44.168Z,100439.53
2022-09-13T17:46:13.061Z,100442.41
2022-09-13T17:48:40.100Z,100440.81
2022-09-13T17:51:09.692Z,100452.72
2022-09-13T17:53:45.990Z,100462.03
2022-09-13T17:56:17.201Z,100467.97
2022-09-13T17:58:43.638Z,100461.84
2022-09-13T18:01:11.407Z,100457.81
2022-09-13T18:03:39.163Z,100453.47
2022-09-13T18:06:08.689Z,100454.69
2022-09-13T18:08:37.214Z,100458.09
2022-09-13T18:11:13.925Z,100459.25
2022-09-13T18:13:44.124Z,100452.72
2022-09-13T18:16:20.702Z,100447.78
2022-09-13T18:18:49.185Z,100453.75
2022-09-13T18:21:18.624Z,100448.38
2022-09-13T18:23:46.459Z,100442.91
2022-09-13T18:26:14.823Z,100446.59
2022-09-13T18:28:43.322Z,100443.47
2022-09-13T18:31:14.067Z,100441.56
2022-09-13T18:33:40.777Z,100447.34
2022-09-13T18:36:08.264Z,100450.34
2022-09-13T18:38:40.008Z,100461.00
2022-09-13T18:41:15.117Z,100462.50
2022-09-13T18:43:44.084Z,100451.94
2022-09-13T18:46:16.230Z,100458.53
2022-09-13T18:48:44.763Z,100450.09
2022-09-13T18:51:13.302Z,100459.09
2022-09-13T18:53:40.247Z,100464.56
2022-09-13T18:56:08.883Z,100456.25
2022-09-13T18:58:37.547Z,100451.81
2022-09-13T19:01:12.919Z,100475.25
2022-09-13T19:03:40.881Z,100479.69
2022-09-13T19:06:25.587Z,100476.84
2022-09-13T19:08:52.954Z,100484.34
2022-09-13T19:11:44.838Z,100488.84
2022-09-13T19:14:07.304Z,100494.28
2022-09-13T19:16:34.239Z,100484.69
2022-09-13T19:19:01.249Z,100478.75
2022-09-13T19:21:30.260Z,100478.09
2022-09-13T19:24:01.503Z,100476.63
2022-09-13T19:26:35.220Z,100477.88
2022-09-13T19:29:04.970Z,100485.16
2022-09-13T19:31:33.795Z,100478.34
2022-09-13T19:34:02.174Z,100473.31
2022-09-13T19:36:34.050Z,100469.91
2022-09-13T19:39:00.973Z,100471.84
2022-09-13T19:41:29.791Z,100469.97
2022-09-13T19:44:00.658Z,100476.28
2022-09-13T19:46:31.660Z,100466.84
2022-09-13T19:48:59.317Z,100470.84
2022-09-13T19:51:31.894Z,100466.44
2022-09-13T19:53:59.230Z,100469.38
2022-09-13T19:56:33.992Z,100461.91
2022-09-13T19:59:01.397Z,100467.88
2022-09-13T20:01:33.856Z,100461.31
2022-09-13T20:04:02.622Z,100463.41
2022-09-13T20:06:37.240Z,100456.94
2022-09-13T20:09:04.656Z,100450.41
2022-09-13T20:11:31.879Z,100462.13
2022-09-13T20:13:59.718Z,100457.53
2022-09-13T20:16:37.332Z,100468.63
2022-09-13T20:19:18.295Z,100456.50
2022-09-13T20:21:50.617Z,100459.25
2022-09-13T20:24:17.892Z,100454.78
2022-09-13T20:26:44.676Z,100458.91
2022-09-13T20:29:11.876Z,100452.41
2022-09-13T20:31:38.365Z,100453.22
2022-09-13T20:34:07.661Z,100455.28
2022-09-13T20:36:36.452Z,100451.41
2022-09-13T20:39:04.215Z,100452.63
2022-09-13T20:41:31.648Z,100450.69
2022-09-13T20:43:59.817Z,100445.50
2022-09-13T20:46:27.280Z,100441.69
2022-09-13T20:48:53.898Z,100437.13
2022-09-13T20:51:22.339Z,100439.91
2022-09-13T20:53:56.193Z,100434.38
2022-09-13T20:56:23.563Z,100420.94
2022-09-13T20:58:56.864Z,100433.19
2022-09-13T21:01:24.474Z,100429.03
2022-09-13T21:03:52.404Z,100431.69
2022-09-13T21:06:20.298Z,100427.66
2022-09-13T21:08:49.537Z,100439.56
2022-09-13T21:11:17.648Z,100433.94
2022-09-13T21:13:49.349Z,100434.44
2022-09-13T21:16:21.538Z,100441.22
2022-09-13T21:18:48.364Z,100440.09
2022-09-13T21:21:17.139Z,100432.59
2022-09-13T21:23:44.273Z,100444.31
2022-09-13T21:26:13.077Z,100435.75
2022-09-13T21:28:42.693Z,100434.28
2022-09-13T21:31:16.089Z,100432.75
2022-09-13T21:33:46.081Z,100430.84
2022-09-13T21:36:13.063Z,100428.63
2022-09-13T21:38:39.937Z,100435.44
2022-09-13T21:41:10.432Z,100436.75
2022-09-13T21:43:37.944Z,100439.25
2022-09-13T21:46:07.035Z,100433.22
2022-09-13T21:48:34.898Z,100439.56
2022-09-13T21:51:11.078Z,100451.50
2022-09-13T21:53:39.308Z,100446.09
2022-09-13T21:56:11.822Z,100432.25
2022-09-13T21:58:38.782Z,100444.75
2022-09-13T22:01:06.802Z,100452.53
2022-09-13T22:03:40.972Z,100440.41
2022-09-13T22:06:09.019Z,100432.53
2022-09-13T22:08:39.001Z,100430.59
2022-09-13T22:11:11.405Z,100427.72
2022-09-13T22:13:45.718Z,100425.88
2022-09-13T22:16:17.370Z,100422.00
2022-09-13T22:18:44.319Z,100423.56
2022-09-13T22:21:18.010Z,100424.56
2022-09-13T22:23:47.360Z,100418.59
2022-09-13T22:26:19.795Z,100426.13
2022-09-13T22:28:47.030Z,100428.09
2022-09-13T22:31:19.382Z,100424.38
2022-09-13T22:33:46.956Z,100427.81
2022-09-13T22:36:14.867Z,100413.41
2022-09-13T22:38:43.030Z,100422.16
2022-09-13T22:41:15.308Z,100420.38
2022-09-13T22:43:42.471Z,100420.66
2022-09-13T22:46:27.179Z,100414.44
2022-09-13T22:48:54.502Z,100415.47
2022-09-13T22:51:21.756Z,100411.72
2022-09-13T22:53:49.553Z,100414.97
2022-09-13T22:56:17.234Z,100408.47
2022-09-13T22:58:44.157Z,100418.72
2022-09-13T23:01:18.061Z,100423.03
2022-09-13T23:03:46.380Z,100425.31
2022-09-13T23:06:15.626Z,100417.00
2022-09-13T23:08:42.438Z,100419.91
2022-09-13T23:11:23.188Z,100422.47
2022-09-13T23:13:52.130Z,100422.78
2022-09-13T23:16:24.957Z,100421.84
2022-09-13T23:18:52.515Z,100424.50
2022-09-13T23:21:20.673Z,100420.03
2022-09-13T23:23:47.317Z,100404.63
2022-09-13T23:26:17.613Z,100420.47
2022-09-13T23:28:45.740Z,100412.75
2022-09-13T23:31:17.797Z,100408.09
2022-09-13T23:33:50.020Z,100405.72
2022-09-13T23:36:20.909Z,100407.16
2022-09-13T23:38:49.764Z,100408.25
2022-09-13T23:41:17.780Z,100408.97
2022-09-13T23:43:44.769Z,100415.19
2022-09-13T23:46:11.621Z,100410.84
2022-09-13T23:48:38.613Z,100405.72
2022-09-13T23:51:09.548Z,100404.03
2022-09-13T23:53:36.879Z,100406.31
2022-09-13T23:56:05.400Z,100410.75
2022-09-13T23:58:35.129Z,100408.03
